Time;durP1;ratioP1;P1;durP2;ratioP2;P2;SDS_P1;SDS_P2;PMS_P1;PMS_P2;Temp;Humidity;BMP_temperature;BMP_pressure;BME280_temperature;BME280_humidity;BME280_pressure;Samples;Min_cycle;Max_cycle;Signal;HPM_P1;HPM_P2
2022/12/06 00:01:31;;;;;;;12.80;11.60;;;;;;;;;;5032355;28;20402;-88
2022/12/06 00:03:58;;;;;;;13.35;12.05;;;;;;;;;;5032124;28;20378;-88
2022/12/06 00:06:26;;;;;;;13.25;12.05;;;;;;;;;;5032325;28;20432;-89
2022/12/06 00:08:52;;;;;;;13.45;12.25;;;;;;;;;;5035280;28;20387;-88
2022/12/06 00:11:20;;;;;;;14.32;12.93;;;;;;;;;;5034923;28;20676;-88
2022/12/06 00:13:46;;;;;;;13.32;12.07;;;;;;;;;;5014387;28;20808;-88
2022/12/06 00:16:14;;;;;;;13.90;12.55;;;;;;;;;;5032313;28;20431;-89
2022/12/06 00:18:40;;;;;;;14.60;13.10;;;;;;;;;;5031867;28;20383;-87
2022/12/06 00:21:13;;;;;;;14.13;12.60;;;;;;;;;;5032044;28;20474;-89
2022/12/06 00:23:41;;;;;;;14.23;12.77;;;;;;;;;;5033184;28;20473;-89
2022/12/06 00:26:07;;;;;;;13.80;12.60;;;;;;;;;;5036408;28;20454;-89
2022/12/06 00:28:34;;;;;;;14.35;12.95;;;;;;;;;;5036136;28;20394;-88
2022/12/06 00:31:01;;;;;;;14.35;12.85;;;;;;;;;;5035781;28;20379;-87
2022/12/06 00:33:27;;;;;;;14.40;13.00;;;;;;;;;;5034910;28;20485;-88
2022/12/06 00:35:56;;;;;;;14.20;12.80;;;;;;;;;;5034590;28;20418;-88
2022/12/06 00:38:22;;;;;;;13.98;12.55;;;;;;;;;;5036151;28;20416;-88
2022/12/06 00:40:48;;;;;;;15.23;13.70;;;;;;;;;;5036215;28;20418;-88
2022/12/06 00:43:14;;;;;;;14.40;13.00;;;;;;;;;;5035793;28;20437;-89
2022/12/06 00:45:40;;;;;;;14.13;12.73;;;;;;;;;;5035968;28;20844;-88
2022/12/06 00:48:06;;;;;;;13.82;12.52;;;;;;;;;;5035496;28;20398;-90
2022/12/06 00:50:32;;;;;;;13.55;12.40;;;;;;;;;;5034161;28;20518;-88
2022/12/06 00:52:58;;;;;;;13.38;12.07;;;;;;;;;;5035663;28;20403;-88
2022/12/06 00:55:24;;;;;;;13.50;12.20;;;;;;;;;;5035463;28;20429;-88
2022/12/06 00:57:52;;;;;;;13.85;12.57;;;;;;;;;;5034786;28;20818;-88
2022/12/06 01:00:18;;;;;;;13.02;11.85;;;;;;;;;;5019156;28;20554;-88
2022/12/06 01:02:44;;;;;;;13.35;12.15;;;;;;;;;;5034430;28;20387;-89
2022/12/06 01:05:10;;;;;;;12.57;11.45;;;;;;;;;;5016021;28;20386;-88
2022/12/06 01:07:36;;;;;;;11.77;10.80;;;;;;;;;;5034533;28;20399;-89
2022/12/06 01:10:02;;;;;;;11.53;10.63;;;;;;;;;;5034373;28;20387;-88
2022/12/06 01:12:28;;;;;;;11.57;10.57;;;;;;;;;;5018898;28;20402;-88
2022/12/06 01:14:54;;;;;;;11.65;10.65;;;;;;;;;;5033893;28;20465;-88
2022/12/06 01:17:20;;;;;;;11.70;10.70;;;;;;;;;;5019060;28;20901;-89
2022/12/06 01:19:46;;;;;;;11.13;10.13;;;;;;;;;;5033669;28;20457;-89
2022/12/06 01:22:12;;;;;;;11.60;10.60;;;;;;;;;;5034097;28;20390;-88
2022/12/06 01:24:38;;;;;;;12.15;11.05;;;;;;;;;;5033737;28;20391;-89
2022/12/06 01:27:04;;;;;;;10.93;9.93;;;;;;;;;;5034730;28;20383;-88
2022/12/06 01:29:30;;;;;;;10.65;9.75;;;;;;;;;;5054388;28;20442;-88
2022/12/06 01:31:56;;;;;;;11.27;10.27;;;;;;;;;;5047477;28;20385;-88
2022/12/06 01:34:22;;;;;;;12.18;11.10;;;;;;;;;;5023698;28;20734;-87
2022/12/06 01:36:49;;;;;;;11.52;10.52;;;;;;;;;;5016710;28;20389;-88
2022/12/06 01:39:15;;;;;;;10.13;9.23;;;;;;;;;;5016202;28;20498;-89
2022/12/06 01:41:41;;;;;;;11.45;10.45;;;;;;;;;;5034182;28;20383;-87
2022/12/06 01:44:07;;;;;;;11.35;10.32;;;;;;;;;;5033183;28;20387;-87
2022/12/06 01:46:33;;;;;;;11.73;10.73;;;;;;;;;;5032644;28;20469;-87
2022/12/06 01:49:06;;;;;;;11.63;10.63;;;;;;;;;;5032376;28;21007;-88
2022/12/06 01:51:32;;;;;;;11.85;10.85;;;;;;;;;;5032622;28;20535;-88
2022/12/06 01:53:59;;;;;;;11.15;10.15;;;;;;;;;;5030878;28;20383;-89
2022/12/06 01:56:25;;;;;;;11.57;10.57;;;;;;;;;;5026897;28;20468;-88
2022/12/06 01:58:52;;;;;;;11.38;10.30;;;;;;;;;;5032529;28;20409;-88
2022/12/06 02:01:18;;;;;;;11.07;10.18;;;;;;;;;;5019500;28;20483;-88
2022/12/06 02:03:44;;;;;;;11.25;10.25;;;;;;;;;;5028703;28;20411;-88
2022/12/06 02:06:10;;;;;;;10.98;10.07;;;;;;;;;;5015339;28;20388;-88
2022/12/06 02:08:37;;;;;;;11.02;10.13;;;;;;;;;;5024403;28;20737;-88
2022/12/06 02:11:03;;;;;;;11.18;10.27;;;;;;;;;;5032511;28;20856;-87
2022/12/06 02:13:31;;;;;;;11.30;10.40;;;;;;;;;;5032480;28;20410;-88
2022/12/06 02:16:03;;;;;;;10.52;9.68;;;;;;;;;;5032974;28;20810;-88
2022/12/06 02:18:29;;;;;;;10.50;9.70;;;;;;;;;;5032706;28;20419;-87
2022/12/06 02:21:21;;;;;;;10.10;9.10;;;;;;;;;;5032315;28;20533;-88
2022/12/06 02:24:06;;;;;;;10.30;9.40;;;;;;;;;;5008740;28;20490;-88
2022/12/06 02:26:37;;;;;;;10.65;9.65;;;;;;;;;;5033434;28;20478;-88
2022/12/06 02:29:22;;;;;;;10.07;9.25;;;;;;;;;;5034071;28;20391;-88
2022/12/06 02:32:06;;;;;;;10.68;9.77;;;;;;;;;;5033590;28;20515;-88
2022/12/06 02:34:47;;;;;;;10.45;9.45;;;;;;;;;;5032246;28;20474;-88
2022/12/06 02:37:17;;;;;;;8.63;8.02;;;;;;;;;;5022054;28;20395;-88
2022/12/06 02:39:49;;;;;;;9.15;8.35;;;;;;;;;;5033947;28;20383;-88
2022/12/06 02:42:20;;;;;;;9.00;8.30;;;;;;;;;;5032147;28;20391;-87
2022/12/06 02:44:58;;;;;;;7.57;7.03;;;;;;;;;;5033189;28;20443;-88
2022/12/06 02:47:26;;;;;;;7.97;7.37;;;;;;;;;;5032577;28;20536;-87
2022/12/06 02:49:53;;;;;;;7.85;7.28;;;;;;;;;;5033235;28;20398;-87
2022/12/06 02:52:23;;;;;;;8.70;8.00;;;;;;;;;;5033028;28;20391;-89
2022/12/06 02:54:49;;;;;;;8.07;7.47;;;;;;;;;;5031527;28;20450;-89
2022/12/06 02:57:15;;;;;;;8.38;7.68;;;;;;;;;;5033231;28;20419;-87
2022/12/06 02:59:50;;;;;;;8.23;7.55;;;;;;;;;;5033242;28;20430;-88
2022/12/06 03:02:16;;;;;;;8.35;7.68;;;;;;;;;;5032700;28;20383;-88
2022/12/06 03:04:48;;;;;;;7.63;7.03;;;;;;;;;;5033208;28;20410;-88
2022/12/06 03:07:26;;;;;;;7.70;7.20;;;;;;;;;;5033211;28;20439;-87
2022/12/06 03:09:58;;;;;;;7.13;6.63;;;;;;;;;;5032979;28;20441;-87
2022/12/06 03:12:34;;;;;;;7.25;6.75;;;;;;;;;;5025912;28;20527;-87
2022/12/06 03:15:09;;;;;;;7.20;6.70;;;;;;;;;;5032856;28;20535;-88
2022/12/06 03:17:37;;;;;;;8.13;7.53;;;;;;;;;;5030308;28;20529;-87
2022/12/06 03:20:06;;;;;;;7.93;7.33;;;;;;;;;;5026032;28;20507;-87
2022/12/06 03:22:41;;;;;;;7.68;7.18;;;;;;;;;;5020616;28;20390;-88
2022/12/06 03:25:08;;;;;;;7.80;7.20;;;;;;;;;;5031888;28;20393;-88
2022/12/06 03:27:35;;;;;;;8.07;7.47;;;;;;;;;;5032861;28;20485;-87
2022/12/06 03:30:03;;;;;;;8.07;7.47;;;;;;;;;;5031749;28;20429;-88
2022/12/06 03:32:32;;;;;;;7.75;7.15;;;;;;;;;;5031492;28;20424;-87
2022/12/06 03:34:59;;;;;;;7.87;7.27;;;;;;;;;;5032554;28;20448;-88
2022/12/06 03:37:26;;;;;;;7.57;6.97;;;;;;;;;;5031295;28;21050;-87
2022/12/06 03:39:52;;;;;;;8.40;7.80;;;;;;;;;;5032491;28;20406;-87
2022/12/06 03:42:19;;;;;;;8.80;8.10;;;;;;;;;;5030905;28;20900;-88
2022/12/06 03:44:46;;;;;;;9.40;8.60;;;;;;;;;;5032322;28;20395;-88
2022/12/06 03:47:23;;;;;;;9.02;8.35;;;;;;;;;;5032373;28;20397;-89
2022/12/06 03:49:58;;;;;;;8.57;7.90;;;;;;;;;;5032140;28;21008;-88
2022/12/06 03:52:24;;;;;;;8.68;7.97;;;;;;;;;;5032714;28;20486;-88
2022/12/06 03:54:50;;;;;;;9.02;8.32;;;;;;;;;;5032192;28;20507;-87
2022/12/06 03:57:16;;;;;;;8.93;8.23;;;;;;;;;;5031915;28;20879;-87
2022/12/06 03:59:42;;;;;;;8.82;8.02;;;;;;;;;;5031483;28;20419;-86
2022/12/06 04:02:08;;;;;;;10.45;9.55;;;;;;;;;;5032067;28;20429;-87
2022/12/06 04:04:34;;;;;;;10.48;9.57;;;;;;;;;;5034679;28;20383;-87
2022/12/06 04:07:00;;;;;;;11.05;10.15;;;;;;;;;;5014201;28;20880;-86
2022/12/06 04:14:55;;;;;;;11.50;10.50;;;;;;;;;;5032339;28;20459;-88
2022/12/06 04:20:06;;;;;;;11.23;10.23;;;;;;;;;;5025161;28;20382;-87
2022/12/06 04:25:16;;;;;;;10.10;9.30;;;;;;;;;;5042829;28;20420;-86
2022/12/06 04:38:41;;;;;;;9.85;9.05;;;;;;;;;;5032384;28;20439;-88
2022/12/06 04:41:07;;;;;;;9.80;9.00;;;;;;;;;;5032104;28;20581;-87
2022/12/06 04:43:42;;;;;;;9.93;9.10;;;;;;;;;;5030347;28;20387;-87
2022/12/06 04:46:12;;;;;;;9.45;8.70;;;;;;;;;;5032068;28;20518;-87
2022/12/06 04:48:38;;;;;;;10.48;9.57;;;;;;;;;;5032101;28;20470;-88
2022/12/06 04:51:04;;;;;;;10.35;9.55;;;;;;;;;;5032090;28;20395;-88
2022/12/06 04:53:30;;;;;;;10.70;9.80;;;;;;;;;;5031302;28;20415;-86
2022/12/06 04:55:56;;;;;;;10.40;9.60;;;;;;;;;;5031791;28;20421;-86
2022/12/06 04:58:22;;;;;;;9.43;8.63;;;;;;;;;;5037730;28;20426;-87
2022/12/06 05:00:53;;;;;;;11.10;10.10;;;;;;;;;;5038570;28;20411;-86
2022/12/06 05:03:19;;;;;;;10.27;9.00;;;;;;;;;;5029377;28;20456;-87
2022/12/06 05:05:45;;;;;;;10.40;9.60;;;;;;;;;;5025176;28;20799;-86
2022/12/06 05:08:11;;;;;;;10.50;9.55;;;;;;;;;;5028378;28;20387;-86
2022/12/06 05:10:37;;;;;;;12.27;11.20;;;;;;;;;;5034080;28;20718;-86
2022/12/06 05:13:03;;;;;;;10.93;9.80;;;;;;;;;;5034160;28;20387;-87
2022/12/06 05:15:29;;;;;;;10.75;9.85;;;;;;;;;;5034773;28;20419;-88
2022/12/06 05:17:55;;;;;;;10.32;9.40;;;;;;;;;;5035319;28;20474;-87
2022/12/06 05:20:21;;;;;;;10.55;9.55;;;;;;;;;;5035269;28;20514;-87
2022/12/06 05:22:47;;;;;;;10.10;9.20;;;;;;;;;;5020831;28;20391;-88
2022/12/06 05:25:13;;;;;;;11.20;10.10;;;;;;;;;;5034959;28;20383;-88
2022/12/06 05:27:39;;;;;;;10.38;9.45;;;;;;;;;;5034809;28;20473;-88
2022/12/06 05:30:06;;;;;;;10.20;9.30;;;;;;;;;;5034919;28;20391;-88
2022/12/06 05:32:32;;;;;;;10.52;9.52;;;;;;;;;;5034736;28;20390;-87
2022/12/06 05:34:58;;;;;;;9.73;8.93;;;;;;;;;;5034742;28;20427;-86
2022/12/06 05:37:24;;;;;;;10.10;9.30;;;;;;;;;;5035003;28;20423;-87
2022/12/06 05:39:50;;;;;;;10.35;9.48;;;;;;;;;;5034818;28;20425;-87
2022/12/06 05:42:16;;;;;;;10.10;9.20;;;;;;;;;;5034993;28;20393;-86
2022/12/06 05:44:42;;;;;;;10.13;9.33;;;;;;;;;;5034872;28;20458;-87
2022/12/06 05:47:08;;;;;;;11.30;10.30;;;;;;;;;;5034800;28;20379;-87
2022/12/06 05:49:34;;;;;;;9.85;8.85;;;;;;;;;;5033249;28;20908;-86
2022/12/06 05:52:00;;;;;;;10.18;9.38;;;;;;;;;;5034500;28;20388;-86
2022/12/06 05:54:26;;;;;;;10.90;9.90;;;;;;;;;;5034336;28;20383;-86
2022/12/06 05:56:52;;;;;;;10.63;9.73;;;;;;;;;;5034289;28;20400;-86
2022/12/06 05:59:18;;;;;;;10.50;9.55;;;;;;;;;;5034170;28;20827;-86
2022/12/06 06:01:44;;;;;;;11.25;10.07;;;;;;;;;;5034147;28;20390;-87
2022/12/06 06:04:10;;;;;;;13.27;11.73;;;;;;;;;;5033796;28;20883;-87
2022/12/06 06:06:36;;;;;;;13.18;11.77;;;;;;;;;;5033462;28;20426;-86
2022/12/06 06:09:02;;;;;;;12.10;10.90;;;;;;;;;;5039518;28;20435;-86
2022/12/06 06:11:28;;;;;;;10.80;9.80;;;;;;;;;;5042725;28;20387;-87
2022/12/06 06:13:54;;;;;;;11.40;10.20;;;;;;;;;;5037469;28;20390;-86
2022/12/06 06:16:21;;;;;;;10.68;9.68;;;;;;;;;;5034233;28;20422;-88
2022/12/06 06:18:47;;;;;;;10.40;9.43;;;;;;;;;;5034048;28;20445;-89
2022/12/06 06:21:13;;;;;;;9.43;8.63;;;;;;;;;;5021965;28;20397;-86
2022/12/06 06:23:39;;;;;;;9.77;8.88;;;;;;;;;;5030813;28;20392;-87
2022/12/06 06:26:06;;;;;;;8.70;8.00;;;;;;;;;;5022511;28;20383;-86
2022/12/06 06:28:32;;;;;;;9.02;8.27;;;;;;;;;;5033392;28;20395;-86
2022/12/06 06:31:01;;;;;;;8.68;7.88;;;;;;;;;;5033543;28;20453;-86
2022/12/06 06:33:27;;;;;;;9.20;8.50;;;;;;;;;;5033144;28;20382;-86
2022/12/06 06:35:53;;;;;;;9.18;8.48;;;;;;;;;;5032924;28;20816;-86
2022/12/06 06:38:19;;;;;;;8.15;7.55;;;;;;;;;;5032472;28;20391;-86
2022/12/06 06:40:48;;;;;;;9.20;8.40;;;;;;;;;;5032364;28;20383;-87
2022/12/06 06:43:17;;;;;;;9.15;8.45;;;;;;;;;;5032231;28;20518;-86
2022/12/06 06:45:44;;;;;;;9.23;8.52;;;;;;;;;;5030932;28;20427;-87
2022/12/06 06:48:17;;;;;;;10.50;9.60;;;;;;;;;;5031996;28;20394;-86
2022/12/06 06:50:42;;;;;;;11.00;10.00;;;;;;;;;;5029393;28;20424;-87
2022/12/06 06:53:09;;;;;;;10.63;9.73;;;;;;;;;;5031928;28;20397;-87
2022/12/06 06:55:35;;;;;;;11.67;10.67;;;;;;;;;;5031761;28;20939;-87
2022/12/06 06:58:01;;;;;;;15.43;13.85;;;;;;;;;;5029523;28;20406;-87
2022/12/06 07:00:27;;;;;;;13.98;12.77;;;;;;;;;;5032235;28;20387;-87
2022/12/06 07:02:53;;;;;;;14.25;12.95;;;;;;;;;;5031914;28;20430;-86
2022/12/06 07:05:19;;;;;;;13.88;12.68;;;;;;;;;;5028921;28;20391;-87
2022/12/06 07:07:46;;;;;;;10.55;9.57;;;;;;;;;;5032059;28;20390;-87
2022/12/06 07:10:12;;;;;;;11.20;10.30;;;;;;;;;;5031515;28;20437;-86
2022/12/06 07:12:38;;;;;;;10.60;9.70;;;;;;;;;;5031884;28;20873;-86
2022/12/06 07:15:05;;;;;;;11.32;10.30;;;;;;;;;;5031258;28;20407;-86
2022/12/06 07:17:31;;;;;;;10.40;9.50;;;;;;;;;;5031674;28;20475;-87
2022/12/06 07:19:57;;;;;;;10.73;9.73;;;;;;;;;;5024126;28;20387;-87
2022/12/06 07:22:23;;;;;;;11.02;9.93;;;;;;;;;;5032313;28;20450;-87
2022/12/06 07:24:49;;;;;;;11.30;10.30;;;;;;;;;;5032589;28;20462;-88
2022/12/06 07:27:15;;;;;;;11.13;10.13;;;;;;;;;;5034088;28;20377;-88
2022/12/06 07:29:41;;;;;;;11.05;10.05;;;;;;;;;;5032778;28;20383;-86
2022/12/06 07:32:07;;;;;;;12.75;11.43;;;;;;;;;;5032293;28;20395;-88
2022/12/06 07:34:33;;;;;;;12.00;10.63;;;;;;;;;;5030794;28;20387;-87
2022/12/06 07:36:59;;;;;;;14.02;12.02;;;;;;;;;;5032292;28;20934;-87
2022/12/06 07:39:25;;;;;;;16.67;13.98;;;;;;;;;;5032905;28;20394;-86
2022/12/06 07:47:20;;;;;;;15.30;13.35;;;;;;;;;;5032495;28;20497;-87
2022/12/06 07:49:46;;;;;;;16.05;13.27;;;;;;;;;;5032530;28;20474;-87
2022/12/06 07:52:12;;;;;;;16.52;13.48;;;;;;;;;;5032408;28;20379;-90
2022/12/06 07:54:40;;;;;;;14.88;13.27;;;;;;;;;;5031940;28;20924;-90
2022/12/06 07:57:06;;;;;;;14.70;13.27;;;;;;;;;;5028687;28;20395;-90
2022/12/06 07:59:32;;;;;;;13.93;12.57;;;;;;;;;;5024187;28;20386;-90
2022/12/06 08:01:58;;;;;;;13.03;11.83;;;;;;;;;;5014718;28;20439;-90
2022/12/06 08:04:24;;;;;;;13.07;11.77;;;;;;;;;;5032530;28;20764;-92
2022/12/06 08:06:50;;;;;;;15.30;13.60;;;;;;;;;;5032526;28;20460;-91
2022/12/06 08:09:16;;;;;;;14.18;12.68;;;;;;;;;;5031862;28;20387;-91
2022/12/06 08:11:42;;;;;;;17.10;15.38;;;;;;;;;;5031994;28;20383;-90
2022/12/06 08:14:09;;;;;;;12.98;11.77;;;;;;;;;;5032117;28;20395;-90
2022/12/06 08:16:35;;;;;;;14.57;13.05;;;;;;;;;;5034540;28;20422;-89
2022/12/06 08:19:01;;;;;;;13.60;12.25;;;;;;;;;;5034539;28;20402;-90
2022/12/06 08:21:27;;;;;;;110.95;62.03;;;;;;;;;;5014356;28;20418;-90
2022/12/06 08:23:54;;;;;;;19.73;15.70;;;;;;;;;;5035874;28;20375;-90
2022/12/06 08:26:20;;;;;;;12.55;11.35;;;;;;;;;;5017564;28;20405;-90
2022/12/06 08:28:46;;;;;;;27.63;19.60;;;;;;;;;;5033465;28;20395;-90
2022/12/06 08:31:17;;;;;;;13.77;12.57;;;;;;;;;;5030614;28;20395;-90
2022/12/06 08:33:43;;;;;;;12.65;11.45;;;;;;;;;;5031805;28;20435;-91
2022/12/06 08:36:10;;;;;;;11.70;10.63;;;;;;;;;;5025533;28;20484;-91
2022/12/06 08:38:37;;;;;;;11.73;10.60;;;;;;;;;;5030486;28;20949;-91
2022/12/06 08:41:03;;;;;;;10.15;9.25;;;;;;;;;;5030608;28;20390;-90
2022/12/06 08:43:30;;;;;;;10.82;9.25;;;;;;;;;;5031777;28;20414;-91
2022/12/06 08:45:56;;;;;;;9.98;8.82;;;;;;;;;;5034124;28;20394;-90
2022/12/06 08:48:22;;;;;;;9.82;9.02;;;;;;;;;;5018298;28;20387;-90
2022/12/06 08:50:48;;;;;;;10.10;9.20;;;;;;;;;;5035805;28;20397;-89
2022/12/06 08:53:14;;;;;;;10.17;9.37;;;;;;;;;;5021818;28;20745;-91
2022/12/06 08:55:40;;;;;;;14.30;12.93;;;;;;;;;;5035743;28;20419;-89
2022/12/06 08:58:06;;;;;;;17.20;15.70;;;;;;;;;;5035872;28;20394;-91
2022/12/06 09:00:32;;;;;;;19.48;17.77;;;;;;;;;;5031985;28;20394;-92
2022/12/06 09:02:58;;;;;;;16.25;14.82;;;;;;;;;;5014717;28;20442;-91
2022/12/06 09:05:24;;;;;;;11.27;10.27;;;;;;;;;;5014411;28;20389;-92
2022/12/06 09:07:50;;;;;;;12.00;10.90;;;;;;;;;;5025472;28;20922;-92
2022/12/06 09:10:16;;;;;;;11.88;10.88;;;;;;;;;;5030050;28;20864;-90
2022/12/06 09:12:42;;;;;;;11.68;10.68;;;;;;;;;;5035276;28;20402;-91
2022/12/06 09:15:08;;;;;;;11.15;10.15;;;;;;;;;;5027494;28;20422;-92
2022/12/06 09:17:35;;;;;;;11.05;10.15;;;;;;;;;;5027955;28;20869;-89
2022/12/06 09:20:01;;;;;;;12.57;11.48;;;;;;;;;;5018567;28;20427;-89
2022/12/06 09:22:27;;;;;;;11.38;10.48;;;;;;;;;;5035238;28;20778;-89
2022/12/06 09:24:53;;;;;;;17.98;12.02;;;;;;;;;;5034727;28;20387;-89
2022/12/06 09:27:19;;;;;;;13.05;11.65;;;;;;;;;;5035275;28;20394;-89
2022/12/06 09:29:45;;;;;;;11.98;10.88;;;;;;;;;;5035099;28;20383;-89
2022/12/06 09:32:11;;;;;;;12.02;10.88;;;;;;;;;;5035298;28;20383;-90
2022/12/06 09:34:37;;;;;;;11.77;10.67;;;;;;;;;;5033682;28;20868;-90
2022/12/06 09:37:06;;;;;;;14.32;12.98;;;;;;;;;;5035034;28;20545;-89
2022/12/06 09:39:34;;;;;;;13.47;12.10;;;;;;;;;;5033307;28;20403;-89
2022/12/06 09:42:00;;;;;;;13.35;11.75;;;;;;;;;;5034696;28;20499;-89
2022/12/06 09:44:42;;;;;;;12.98;11.88;;;;;;;;;;5034784;28;20594;-89
2022/12/06 09:47:32;;;;;;;11.73;10.73;;;;;;;;;;5034822;28;20909;-89
2022/12/06 09:50:16;;;;;;;14.93;12.13;;;;;;;;;;5019938;28;20424;-88
2022/12/06 09:52:52;;;;;;;13.73;12.40;;;;;;;;;;5034621;28;20456;-89
2022/12/06 09:55:25;;;;;;;13.95;12.45;;;;;;;;;;5027726;28;20456;-89
2022/12/06 09:57:57;;;;;;;14.65;13.23;;;;;;;;;;5021821;28;20438;-88
2022/12/06 10:00:24;;;;;;;14.85;13.48;;;;;;;;;;5017365;28;20433;-89
2022/12/06 10:02:50;;;;;;;15.88;14.35;;;;;;;;;;5031506;28;20399;-89
2022/12/06 10:05:34;;;;;;;17.92;16.13;;;;;;;;;;5034441;28;20736;-89
2022/12/06 10:08:16;;;;;;;16.30;14.68;;;;;;;;;;5033310;28;20467;-89
2022/12/06 10:10:57;;;;;;;17.65;15.85;;;;;;;;;;5034450;28;20433;-88
2022/12/06 10:13:38;;;;;;;18.40;16.50;;;;;;;;;;5034186;28;20422;-89
2022/12/06 10:16:07;;;;;;;21.40;19.10;;;;;;;;;;5034020;28;20494;-91
2022/12/06 10:18:52;;;;;;;23.27;20.55;;;;;;;;;;5032639;28;20440;-89
2022/12/06 10:21:18;;;;;;;23.52;19.23;;;;;;;;;;5040542;28;20405;-90
2022/12/06 10:23:53;;;;;;;22.40;18.97;;;;;;;;;;5016164;28;20760;-89
2022/12/06 10:26:28;;;;;;;23.48;20.00;;;;;;;;;;5034321;28;20436;-89
2022/12/06 10:28:57;;;;;;;21.60;18.92;;;;;;;;;;5020811;28;20448;-90
2022/12/06 10:31:28;;;;;;;23.90;20.23;;;;;;;;;;5033569;28;20436;-90
2022/12/06 10:34:05;;;;;;;24.03;20.83;;;;;;;;;;5033562;28;20435;-89
2022/12/06 10:36:32;;;;;;;25.17;20.53;;;;;;;;;;5028062;28;20972;-89
2022/12/06 10:39:17;;;;;;;24.17;20.92;;;;;;;;;;5033928;28;20394;-89
2022/12/06 10:41:47;;;;;;;24.88;20.70;;;;;;;;;;5033922;28;20453;-90
2022/12/06 10:44:18;;;;;;;24.20;20.65;;;;;;;;;;5033815;28;20877;-90
2022/12/06 10:47:03;;;;;;;24.30;19.70;;;;;;;;;;5033667;28;20386;-89
2022/12/06 10:49:43;;;;;;;25.77;20.50;;;;;;;;;;5033433;28;20935;-90
2022/12/06 10:52:22;;;;;;;24.42;20.33;;;;;;;;;;5033689;28;20432;-88
2022/12/06 10:54:48;;;;;;;23.75;19.90;;;;;;;;;;5033299;28;20506;-89
2022/12/06 10:57:20;;;;;;;24.90;20.50;;;;;;;;;;5032393;28;20802;-89
2022/12/06 10:59:53;;;;;;;22.60;19.37;;;;;;;;;;5033644;28;20885;-89
2022/12/06 11:02:19;;;;;;;23.58;20.00;;;;;;;;;;5029434;28;20543;-90
2022/12/06 11:04:45;;;;;;;27.02;22.73;;;;;;;;;;5024224;28;20430;-88
2022/12/06 11:07:14;;;;;;;30.35;23.95;;;;;;;;;;5032560;28;20955;-88
2022/12/06 11:09:50;;;;;;;34.20;25.23;;;;;;;;;;5031562;28;20415;-90
2022/12/06 11:12:24;;;;;;;45.00;31.60;;;;;;;;;;5032933;28;20390;-89
2022/12/06 11:14:57;;;;;;;41.00;28.47;;;;;;;;;;5032599;28;25152;-88
2022/12/06 11:17:23;;;;;;;45.78;31.65;;;;;;;;;;5017700;28;20394;-89
2022/12/06 11:20:00;;;;;;;42.97;30.33;;;;;;;;;;5032965;28;20849;-89
2022/12/06 11:22:38;;;;;;;42.40;29.73;;;;;;;;;;5033093;28;20999;-89
2022/12/06 11:25:21;;;;;;;38.28;28.15;;;;;;;;;;5032698;28;20779;-89
2022/12/06 11:27:56;;;;;;;34.38;26.55;;;;;;;;;;5032542;28;20391;-88
2022/12/06 11:30:22;;;;;;;38.65;27.77;;;;;;;;;;5032679;28;20379;-89
2022/12/06 11:32:49;;;;;;;34.95;26.35;;;;;;;;;;5032580;28;20402;-89
2022/12/06 11:35:18;;;;;;;37.45;27.15;;;;;;;;;;5032652;28;20403;-89
2022/12/06 11:37:44;;;;;;;36.22;26.92;;;;;;;;;;5031465;28;20402;-89
2022/12/06 11:40:14;;;;;;;32.53;25.07;;;;;;;;;;5032946;28;20371;-89
2022/12/06 11:42:40;;;;;;;28.58;23.35;;;;;;;;;;5032974;28;20386;-90
2022/12/06 11:45:10;;;;;;;25.30;20.88;;;;;;;;;;5032763;28;20390;-89
2022/12/06 11:47:36;;;;;;;27.92;21.33;;;;;;;;;;5032626;28;20419;-90
2022/12/06 11:50:02;;;;;;;24.08;21.08;;;;;;;;;;5032336;28;20383;-89
2022/12/06 11:52:31;;;;;;;27.70;22.73;;;;;;;;;;5032622;28;20499;-89
2022/12/06 11:55:04;;;;;;;29.70;23.60;;;;;;;;;;5041755;28;20535;-89
2022/12/06 11:57:33;;;;;;;29.08;22.98;;;;;;;;;;5034766;28;20428;-90
2022/12/06 12:00:20;;;;;;;25.33;21.83;;;;;;;;;;5032263;28;20468;-89
2022/12/06 12:02:47;;;;;;;23.70;20.30;;;;;;;;;;5032253;28;20482;-89
2022/12/06 12:05:13;;;;;;;21.77;19.13;;;;;;;;;;5032571;28;20893;-90
2022/12/06 12:07:40;;;;;;;27.40;20.65;;;;;;;;;;5032535;28;20466;-90
2022/12/06 12:10:23;;;;;;;29.42;22.88;;;;;;;;;;5032006;28;20934;-89
2022/12/06 12:15:35;;;;;;;34.65;25.27;;;;;;;;;;5032176;28;20510;-89
2022/12/06 12:18:02;;;;;;;35.30;25.38;;;;;;;;;;5032147;28;20391;-89
2022/12/06 12:20:33;;;;;;;34.67;26.35;;;;;;;;;;5028959;28;20390;-91
2022/12/06 12:23:01;;;;;;;33.55;25.50;;;;;;;;;;5036009;28;20439;-89
2022/12/06 12:25:29;;;;;;;36.00;26.20;;;;;;;;;;5036628;28;20383;-90
2022/12/06 12:27:56;;;;;;;35.65;26.80;;;;;;;;;;5038618;28;20402;-90
2022/12/06 12:30:39;;;;;;;32.67;25.63;;;;;;;;;;5035481;28;20380;-91
2022/12/06 12:33:05;;;;;;;29.05;23.13;;;;;;;;;;5032332;28;20500;-90
2022/12/06 12:35:32;;;;;;;29.20;22.67;;;;;;;;;;5035916;28;20506;-89
2022/12/06 12:38:00;;;;;;;31.60;24.23;;;;;;;;;;5018325;28;20811;-89
2022/12/06 12:40:29;;;;;;;32.83;25.33;;;;;;;;;;5036113;28;20381;-90
2022/12/06 12:43:00;;;;;;;32.65;25.48;;;;;;;;;;5035673;28;20924;-90
2022/12/06 12:45:26;;;;;;;33.20;25.95;;;;;;;;;;5035745;28;20402;-89
2022/12/06 12:48:15;;;;;;;31.23;24.98;;;;;;;;;;5035978;28;20459;-89
2022/12/06 12:50:51;;;;;;;28.20;23.30;;;;;;;;;;5007774;28;20414;-90
2022/12/06 12:53:38;;;;;;;27.13;22.80;;;;;;;;;;5035593;28;20436;-91
2022/12/06 12:56:22;;;;;;;22.85;20.10;;;;;;;;;;5015958;28;20445;-89
2022/12/06 12:58:49;;;;;;;25.90;20.80;;;;;;;;;;5034352;28;20930;-89
2022/12/06 13:01:24;;;;;;;21.15;18.85;;;;;;;;;;5035820;28;20437;-89
2022/12/06 13:04:06;;;;;;;26.98;21.60;;;;;;;;;;5035745;28;20469;-89
2022/12/06 13:06:35;;;;;;;26.35;21.92;;;;;;;;;;5035411;28;20524;-89
2022/12/06 13:09:03;;;;;;;27.00;22.73;;;;;;;;;;5033492;28;20448;-89
2022/12/06 13:11:30;;;;;;;24.48;21.10;;;;;;;;;;5035497;28;20387;-90
2022/12/06 13:13:57;;;;;;;25.88;21.88;;;;;;;;;;5035214;28;20462;-89
2022/12/06 13:16:27;;;;;;;26.77;22.00;;;;;;;;;;5035307;28;20427;-88
2022/12/06 13:18:55;;;;;;;27.40;21.92;;;;;;;;;;5034796;28;20927;-90
2022/12/06 13:21:23;;;;;;;28.95;23.05;;;;;;;;;;5034398;28;20923;-90
2022/12/06 13:23:52;;;;;;;29.77;23.67;;;;;;;;;;5035102;28;20421;-89
2022/12/06 13:26:25;;;;;;;34.90;26.73;;;;;;;;;;5035468;28;20417;-89
2022/12/06 13:28:58;;;;;;;34.05;25.67;;;;;;;;;;5034750;28;20426;-89
2022/12/06 13:31:27;;;;;;;35.08;27.30;;;;;;;;;;5034401;28;20467;-88
2022/12/06 13:34:02;;;;;;;35.77;26.70;;;;;;;;;;5034631;28;20461;-89
2022/12/06 13:36:31;;;;;;;34.75;26.75;;;;;;;;;;5034080;28;20883;-89
2022/12/06 13:38:57;;;;;;;33.22;25.80;;;;;;;;;;5035103;28;20458;-90
2022/12/06 13:42:16;;;;;;;37.03;27.60;;;;;;;;;;5034198;28;20883;-89
2022/12/06 13:44:37;;;;;;;34.92;27.38;;;;;;;;;;5034174;28;20819;-89
2022/12/06 13:47:23;;;;;;;35.00;26.30;;;;;;;;;;5020175;28;20364;-88
2022/12/06 13:49:49;;;;;;;36.95;28.15;;;;;;;;;;5020695;28;20390;-88
2022/12/06 13:52:34;;;;;;;35.92;26.52;;;;;;;;;;5016905;28;20383;-89
2022/12/06 13:55:20;;;;;;;31.73;25.08;;;;;;;;;;5034526;28;20411;-89
2022/12/06 13:57:46;;;;;;;31.83;24.95;;;;;;;;;;5016480;28;20386;-91
2022/12/06 14:00:27;;;;;;;31.88;25.33;;;;;;;;;;5037139;28;20387;-91
2022/12/06 14:02:54;;;;;;;27.35;23.40;;;;;;;;;;5034364;28;20724;-89
2022/12/06 14:05:38;;;;;;;26.55;23.67;;;;;;;;;;5033995;28;20470;-90
2022/12/06 14:08:04;;;;;;;28.45;23.38;;;;;;;;;;5032659;28;20409;-90
2022/12/06 14:10:30;;;;;;;27.88;23.85;;;;;;;;;;5032760;28;20872;-90
2022/12/06 14:13:00;;;;;;;29.40;24.45;;;;;;;;;;5034148;28;20427;-89
2022/12/06 14:15:26;;;;;;;28.08;23.20;;;;;;;;;;5033759;28;20439;-90
2022/12/06 14:17:52;;;;;;;30.42;23.70;;;;;;;;;;5034351;28;20421;-91
2022/12/06 14:20:22;;;;;;;22.47;20.10;;;;;;;;;;5034469;28;20398;-89
2022/12/06 14:22:49;;;;;;;21.77;19.38;;;;;;;;;;5034238;28;20446;-89
2022/12/06 14:25:21;;;;;;;22.63;20.07;;;;;;;;;;5034093;28;20394;-91
2022/12/06 14:27:51;;;;;;;22.85;20.08;;;;;;;;;;5033683;28;20378;-89
2022/12/06 14:30:20;;;;;;;24.23;21.38;;;;;;;;;;5033780;28;20490;-90
2022/12/06 14:32:51;;;;;;;28.33;23.63;;;;;;;;;;5042230;28;20426;-90
2022/12/06 14:35:18;;;;;;;26.35;22.38;;;;;;;;;;5036369;28;20427;-88
2022/12/06 14:37:52;;;;;;;28.48;23.67;;;;;;;;;;5033985;28;20433;-89
2022/12/06 14:40:27;;;;;;;28.70;24.23;;;;;;;;;;5033965;28;20511;-88
2022/12/06 14:43:00;;;;;;;30.17;23.88;;;;;;;;;;5032375;28;20383;-88
2022/12/06 14:45:27;;;;;;;30.80;25.15;;;;;;;;;;5021026;28;20493;-89
2022/12/06 14:47:53;;;;;;;31.40;24.45;;;;;;;;;;5033667;28;20379;-89
2022/12/06 14:50:24;;;;;;;28.57;23.70;;;;;;;;;;5033365;28;20387;-89
2022/12/06 14:52:58;;;;;;;30.55;24.40;;;;;;;;;;5033359;28;20409;-89
2022/12/06 14:55:25;;;;;;;31.92;23.60;;;;;;;;;;5033371;28;20422;-88
2022/12/06 14:57:55;;;;;;;25.65;22.02;;;;;;;;;;5032003;28;20522;-88
2022/12/06 15:00:23;;;;;;;25.38;21.50;;;;;;;;;;5017264;28;20411;-87
2022/12/06 15:02:58;;;;;;;24.95;21.85;;;;;;;;;;5033501;28;20472;-88
2022/12/06 15:05:33;;;;;;;22.80;20.40;;;;;;;;;;5033558;28;20865;-87